createdAt,value
2022-10-14T00:01:46.588Z,54.83
2022-10-14T00:04:12.888Z,54.89
2022-10-14T00:06:39.231Z,55.36
2022-10-14T00:09:05.565Z,55.37
2022-10-14T00:11:31.910Z,55.49
2022-10-14T00:13:58.248Z,55.67
2022-10-14T00:16:24.566Z,56.13
2022-10-14T00:18:50.908Z,56.30
2022-10-14T00:21:17.240Z,56.51
2022-10-14T00:23:43.587Z,56.64
2022-10-14T00:26:09.920Z,57.22
2022-10-14T00:28:36.314Z,57.18
2022-10-14T00:31:02.604Z,57.26
2022-10-14T00:33:28.944Z,57.06
2022-10-14T00:35:55.313Z,57.51
2022-10-14T00:38:21.652Z,57.41
2022-10-14T00:40:47.985Z,57.68
2022-10-14T00:43:14.337Z,58.13
2022-10-14T00:45:40.657Z,58.22
2022-10-14T00:48:07.001Z,58.70
2022-10-14T00:50:33.354Z,58.82
2022-10-14T00:52:59.692Z,59.02
2022-10-14T00:55:26.006Z,59.00
2022-10-14T00:57:52.372Z,59.59
2022-10-14T01:00:18.683Z,59.25
2022-10-14T01:02:45.027Z,59.36
2022-10-14T01:05:11.366Z,59.82
2022-10-14T01:07:37.708Z,59.97
2022-10-14T01:10:04.045Z,60.24
2022-10-14T01:12:30.365Z,60.33
2022-10-14T01:14:56.741Z,60.58
2022-10-14T01:17:23.060Z,61.07
2022-10-14T01:19:49.385Z,61.25
2022-10-14T01:27:26.259Z,62.18
2022-10-14T01:29:52.579Z,62.38
2022-10-14T01:32:19.149Z,63.09
2022-10-14T01:34:45.314Z,63.49
2022-10-14T01:37:11.635Z,63.37
2022-10-14T01:39:37.975Z,63.26
2022-10-14T01:42:04.297Z,63.14
2022-10-14T01:44:30.642Z,63.27
2022-10-14T01:46:56.973Z,63.38
2022-10-14T01:49:23.316Z,63.65
2022-10-14T01:51:49.669Z,63.76
2022-10-14T01:54:15.986Z,63.63
2022-10-14T01:56:42.330Z,63.63
2022-10-14T01:59:08.647Z,63.71
2022-10-14T02:01:35.087Z,63.82
2022-10-14T02:04:01.335Z,63.94
2022-10-14T02:06:27.652Z,64.19
2022-10-14T02:08:53.975Z,64.03
2022-10-14T02:11:20.318Z,63.91
2022-10-14T02:13:46.666Z,64.22
2022-10-14T02:16:13.009Z,63.86
2022-10-14T02:18:39.346Z,64.02
2022-10-14T02:21:05.721Z,64.20
2022-10-14T02:23:32.059Z,64.15
2022-10-14T02:25:58.399Z,64.12
2022-10-14T02:28:24.813Z,64.27
2022-10-14T02:30:51.105Z,64.59
2022-10-14T02:33:17.414Z,64.91
2022-10-14T02:35:43.778Z,64.85
2022-10-14T02:38:10.092Z,65.32
2022-10-14T02:40:36.441Z,65.11
2022-10-14T02:43:02.766Z,65.25
2022-10-14T02:45:29.094Z,65.28
2022-10-14T02:47:55.461Z,65.34
2022-10-14T02:50:21.804Z,65.46
2022-10-14T02:52:48.142Z,65.56
2022-10-14T02:55:14.499Z,65.66
2022-10-14T02:57:40.840Z,65.77
2022-10-14T03:00:07.157Z,65.78
2022-10-14T03:02:33.497Z,65.73
2022-10-14T03:04:59.817Z,65.45
2022-10-14T03:07:26.135Z,65.83
2022-10-14T03:09:52.486Z,66.48
2022-10-14T03:12:18.961Z,66.79
2022-10-14T03:14:45.138Z,66.64
2022-10-14T03:17:11.477Z,67.03
2022-10-14T03:19:37.803Z,66.99
2022-10-14T03:22:04.162Z,67.27
2022-10-14T03:24:30.481Z,67.35
2022-10-14T03:26:56.815Z,67.01
2022-10-14T03:29:23.138Z,66.85
2022-10-14T03:31:49.477Z,66.47
2022-10-14T03:34:15.801Z,66.19
2022-10-14T03:36:42.176Z,66.07
2022-10-14T03:39:08.491Z,66.20
2022-10-14T03:41:34.834Z,66.82
2022-10-14T03:44:01.182Z,66.94
2022-10-14T03:46:27.519Z,67.26
2022-10-14T03:48:53.839Z,67.18
2022-10-14T03:51:20.182Z,67.09
2022-10-14T03:53:46.530Z,67.09
2022-10-14T03:56:12.836Z,66.98
2022-10-14T03:58:39.168Z,67.13
2022-10-14T04:01:05.507Z,66.93
2022-10-14T04:03:31.827Z,66.38
2022-10-14T04:05:58.151Z,66.12
2022-10-14T04:08:24.505Z,66.11
2022-10-14T04:10:50.819Z,65.87
2022-10-14T04:13:17.186Z,66.01
2022-10-14T04:15:43.528Z,66.12
2022-10-14T04:18:09.863Z,66.17
2022-10-14T04:20:36.198Z,66.11
2022-10-14T04:23:02.536Z,66.29
2022-10-14T04:25:28.885Z,66.29
2022-10-14T04:27:55.214Z,66.27
2022-10-14T04:30:21.549Z,66.34
2022-10-14T04:32:47.875Z,66.42
2022-10-14T04:35:14.221Z,66.78
2022-10-14T04:37:40.541Z,66.37
2022-10-14T04:40:06.874Z,66.31
2022-10-14T04:42:33.218Z,66.11
2022-10-14T04:44:59.537Z,66.26
2022-10-14T04:47:25.867Z,66.15
2022-10-14T04:49:52.184Z,66.36
2022-10-14T04:52:18.698Z,66.27
2022-10-14T04:54:44.878Z,66.28
2022-10-14T04:57:11.220Z,66.24
2022-10-14T04:59:37.531Z,66.79
2022-10-14T05:02:03.973Z,66.40
2022-10-14T05:04:30.209Z,66.62
2022-10-14T05:06:56.549Z,66.41
2022-10-14T05:09:22.903Z,66.25
2022-10-14T05:11:49.257Z,66.19
2022-10-14T05:14:15.588Z,65.97
2022-10-14T05:16:41.937Z,65.67
2022-10-14T05:19:08.259Z,65.47
2022-10-14T05:21:34.606Z,65.03
2022-10-14T05:24:00.942Z,64.95
2022-10-14T05:26:27.264Z,64.56
2022-10-14T05:28:53.639Z,64.24
2022-10-14T05:31:19.989Z,64.20
2022-10-14T05:33:46.337Z,64.55
2022-10-14T05:36:12.689Z,64.41
2022-10-14T05:38:39.004Z,64.45
2022-10-14T05:41:05.341Z,64.37
2022-10-14T05:43:32.824Z,64.12
2022-10-14T05:45:57.997Z,63.95
2022-10-14T05:48:24.373Z,63.76
2022-10-14T05:50:50.714Z,63.83
2022-10-14T05:53:17.029Z,63.76
2022-10-14T05:55:43.356Z,64.45
2022-10-14T05:58:09.702Z,64.85
2022-10-14T06:00:36.028Z,64.76
2022-10-14T06:03:02.374Z,64.90
2022-10-14T06:05:28.673Z,64.74
2022-10-14T06:07:54.989Z,64.90
2022-10-14T06:10:21.310Z,64.34
2022-10-14T06:12:47.652Z,63.56
2022-10-14T06:15:14.013Z,63.25
2022-10-14T06:17:40.344Z,62.15
2022-10-14T06:20:06.684Z,61.65
2022-10-14T06:22:33.051Z,61.50
2022-10-14T06:25:04.027Z,60.95
2022-10-14T06:27:25.688Z,62.11
2022-10-14T06:29:52.102Z,61.53
2022-10-14T06:32:18.492Z,61.41
2022-10-14T06:34:44.764Z,61.52
2022-10-14T06:37:11.104Z,62.19
2022-10-14T06:39:37.428Z,62.10
2022-10-14T06:42:03.765Z,61.88
2022-10-14T06:44:30.114Z,61.60
2022-10-14T06:46:56.429Z,61.52
2022-10-14T06:49:22.752Z,60.54
2022-10-14T06:51:49.101Z,60.33
2022-10-14T06:54:15.443Z,60.19
2022-10-14T06:56:41.781Z,59.75
2022-10-14T06:59:08.102Z,58.21
2022-10-14T07:01:34.463Z,57.87
2022-10-14T07:04:00.746Z,58.32
2022-10-14T07:06:27.101Z,58.16
2022-10-14T07:08:53.427Z,57.80
2022-10-14T07:11:19.739Z,57.50
2022-10-14T07:13:46.089Z,56.68
2022-10-14T07:16:12.427Z,56.33
2022-10-14T07:18:38.755Z,56.04
2022-10-14T07:21:05.078Z,56.34
2022-10-14T07:23:31.404Z,56.01
2022-10-14T07:25:57.727Z,56.64
2022-10-14T07:28:24.091Z,57.50
2022-10-14T07:30:50.390Z,57.59
2022-10-14T07:33:16.710Z,57.02
2022-10-14T07:35:43.067Z,57.44
2022-10-14T07:38:09.412Z,57.52
2022-10-14T07:40:35.726Z,57.06
2022-10-14T07:43:02.117Z,55.60
2022-10-14T07:45:28.451Z,54.90
2022-10-14T07:47:54.797Z,54.74
2022-10-14T07:50:21.150Z,54.83
2022-10-14T07:52:47.508Z,54.69
2022-10-14T07:55:13.837Z,54.53
2022-10-14T07:57:40.183Z,54.42
2022-10-14T08:00:06.550Z,52.60
2022-10-14T08:02:32.874Z,53.77
2022-10-14T08:05:18.800Z,53.95
2022-10-14T08:07:25.596Z,52.99
2022-10-14T08:09:51.936Z,52.64
2022-10-14T08:12:18.588Z,52.31
2022-10-14T08:14:44.629Z,51.57
2022-10-14T08:17:10.977Z,51.71
2022-10-14T08:19:37.316Z,51.30
2022-10-14T08:22:03.659Z,50.02
2022-10-14T08:24:30.001Z,51.29
2022-10-14T08:26:56.321Z,51.93
2022-10-14T08:29:22.677Z,51.47
2022-10-14T08:31:48.995Z,52.50
2022-10-14T08:34:15.344Z,52.68
2022-10-14T08:36:41.676Z,51.81
2022-10-14T08:39:08.017Z,52.49
2022-10-14T08:41:34.361Z,51.46
2022-10-14T08:44:00.700Z,51.57
2022-10-14T08:46:27.017Z,50.44
2022-10-14T08:48:53.398Z,50.35
2022-10-14T08:51:19.737Z,49.52
2022-10-14T08:53:46.071Z,49.64
2022-10-14T08:56:12.453Z,49.94
2022-10-14T08:58:38.799Z,50.83
2022-10-14T09:01:08.663Z,49.57
2022-10-14T09:03:31.457Z,48.40
2022-10-14T09:05:57.804Z,49.26
2022-10-14T09:08:24.151Z,50.06
2022-10-14T09:10:50.466Z,48.92
2022-10-14T09:13:16.781Z,48.41
2022-10-14T09:15:43.126Z,49.26
2022-10-14T09:18:09.446Z,49.43
2022-10-14T09:20:35.771Z,49.50
2022-10-14T09:23:02.105Z,49.36
2022-10-14T09:25:28.427Z,48.16
2022-10-14T09:27:54.778Z,48.41
2022-10-14T09:30:21.142Z,50.16
2022-10-14T09:32:47.480Z,50.11
2022-10-14T09:35:13.808Z,50.14
2022-10-14T09:37:40.152Z,50.46
2022-10-14T09:40:06.535Z,50.42
2022-10-14T09:42:32.870Z,49.76
2022-10-14T09:44:59.247Z,49.41
2022-10-14T09:47:25.677Z,49.60
2022-10-14T09:49:51.927Z,47.74
2022-10-14T09:52:18.283Z,47.42
2022-10-14T09:54:44.637Z,46.46
2022-10-14T09:57:10.997Z,46.70
2022-10-14T09:59:37.337Z,47.26
2022-10-14T10:02:03.683Z,46.79
2022-10-14T10:04:29.999Z,45.74
2022-10-14T10:06:56.316Z,45.45
2022-10-14T10:09:22.641Z,45.08
2022-10-14T10:11:48.977Z,44.31
2022-10-14T10:14:15.325Z,45.35
2022-10-14T10:16:41.721Z,45.66
2022-10-14T10:19:08.191Z,44.84
2022-10-14T10:21:34.466Z,44.41
2022-10-14T10:24:00.814Z,42.91
2022-10-14T10:26:27.233Z,40.67
2022-10-14T10:28:53.566Z,41.73
2022-10-14T10:31:20.042Z,42.41
2022-10-14T10:33:46.194Z,42.38
2022-10-14T10:36:12.571Z,42.27
2022-10-14T10:38:38.848Z,42.22
2022-10-14T10:41:05.185Z,42.20
2022-10-14T10:43:31.529Z,42.04
2022-10-14T10:45:57.916Z,40.81
2022-10-14T10:48:24.265Z,37.86
2022-10-14T10:50:51.005Z,38.89
2022-10-14T10:53:17.373Z,38.68
2022-10-14T10:55:43.776Z,38.58
2022-10-14T10:58:10.140Z,38.53
2022-10-14T11:00:36.496Z,39.45
2022-10-14T11:03:02.888Z,38.68
2022-10-14T11:05:29.262Z,39.27
2022-10-14T11:07:55.633Z,38.50
2022-10-14T11:10:22.011Z,38.27
2022-10-14T11:12:48.361Z,38.29
2022-10-14T11:15:14.772Z,38.58
2022-10-14T11:17:41.116Z,38.13
2022-10-14T11:20:07.472Z,37.96
2022-10-14T11:22:33.852Z,36.59
2022-10-14T11:25:00.235Z,37.33
2022-10-14T11:27:26.885Z,37.14
2022-10-14T11:29:52.914Z,36.97
2022-10-14T11:32:19.265Z,37.14
2022-10-14T11:34:45.610Z,36.33
2022-10-14T11:37:11.932Z,37.44
2022-10-14T11:39:38.278Z,36.62
2022-10-14T11:42:04.591Z,35.65
2022-10-14T11:44:30.975Z,35.21
2022-10-14T11:46:57.253Z,34.14
2022-10-14T11:49:23.597Z,33.83
2022-10-14T11:51:49.951Z,33.86
2022-10-14T11:54:16.294Z,34.24
2022-10-14T11:56:42.718Z,33.38
2022-10-14T11:59:09.063Z,33.58
2022-10-14T13:12:29.233Z,39.53
2022-10-14T13:14:55.581Z,38.55
2022-10-14T13:17:22.128Z,39.19
2022-10-14T13:19:48.298Z,39.77
2022-10-14T13:22:14.645Z,39.92
2022-10-14T13:24:40.986Z,40.18
2022-10-14T13:27:07.319Z,40.21
2022-10-14T13:29:33.689Z,39.87
2022-10-14T13:32:00.013Z,39.94
2022-10-14T13:34:26.333Z,40.14
2022-10-14T13:36:52.715Z,40.67
2022-10-14T13:39:19.030Z,40.59
2022-10-14T13:41:45.350Z,40.95
2022-10-14T13:44:11.691Z,40.81
2022-10-14T13:46:38.014Z,40.92
2022-10-14T13:49:04.408Z,40.75
2022-10-14T13:51:36.564Z,40.78
2022-10-14T13:53:57.035Z,40.76
2022-10-14T13:56:23.351Z,41.06
2022-10-14T13:58:49.702Z,40.79
2022-10-14T14:01:16.061Z,40.13
2022-10-14T14:03:42.343Z,38.01
2022-10-14T14:06:08.665Z,38.23
2022-10-14T14:08:40.289Z,36.42
2022-10-14T14:11:16.117Z,36.04
2022-10-14T14:13:27.637Z,36.34
2022-10-14T14:15:53.958Z,35.89
2022-10-14T14:18:20.308Z,36.24
2022-10-14T14:20:46.626Z,35.35
2022-10-14T14:23:12.990Z,34.98
2022-10-14T14:25:50.857Z,34.63
2022-10-14T14:28:05.727Z,34.98
2022-10-14T14:30:31.986Z,35.21
2022-10-14T14:32:58.363Z,35.39
2022-10-14T14:35:24.981Z,35.84
2022-10-14T14:40:35.815Z,36.87
2022-10-14T14:43:02.142Z,37.09
2022-10-14T14:45:28.482Z,37.27
2022-10-14T14:47:54.835Z,37.68
2022-10-14T14:50:36.432Z,37.94
2022-10-14T14:52:47.586Z,38.07
2022-10-14T14:55:13.836Z,38.12
2022-10-14T14:57:40.163Z,38.42
2022-10-14T15:00:06.501Z,38.74
2022-10-14T15:02:32.846Z,38.90
2022-10-14T15:04:59.184Z,39.18
2022-10-14T15:07:25.528Z,39.18
2022-10-14T15:09:51.890Z,39.18
2022-10-14T15:12:18.212Z,39.05
2022-10-14T15:14:44.550Z,39.16
2022-10-14T15:17:10.901Z,38.97
2022-10-14T15:19:38.523Z,39.10
2022-10-14T15:22:03.580Z,39.21
2022-10-14T15:24:29.957Z,39.13
2022-10-14T15:26:56.298Z,39.09
2022-10-14T15:29:22.820Z,39.31
2022-10-14T15:31:48.992Z,39.35
2022-10-14T15:34:15.310Z,39.20
2022-10-14T15:36:41.633Z,39.24
2022-10-14T15:39:07.984Z,39.44
2022-10-14T15:41:34.308Z,39.87
2022-10-14T15:44:00.628Z,40.03
2022-10-14T15:46:26.978Z,41.81
2022-10-14T15:48:53.296Z,43.63
2022-10-14T15:51:19.631Z,44.88
2022-10-14T15:53:45.942Z,46.21
2022-10-14T15:56:12.314Z,46.99
2022-10-14T15:58:38.658Z,47.75
2022-10-14T16:01:05.023Z,48.35
2022-10-14T16:03:31.331Z,48.83
2022-10-14T16:05:57.757Z,49.38
2022-10-14T16:08:24.002Z,49.76
2022-10-14T16:10:50.344Z,49.93
2022-10-14T16:13:16.668Z,50.15
2022-10-14T16:15:43.010Z,50.41
2022-10-14T16:18:09.349Z,50.60
2022-10-14T16:20:35.679Z,50.83
2022-10-14T16:23:02.052Z,50.96
2022-10-14T16:25:28.394Z,50.78
2022-10-14T16:27:54.730Z,51.39
2022-10-14T16:30:21.053Z,51.35
2022-10-14T16:32:47.399Z,51.90
2022-10-14T16:35:13.713Z,51.93
2022-10-14T16:37:40.066Z,52.56
2022-10-14T16:40:06.408Z,52.58
2022-10-14T16:42:32.739Z,52.59
2022-10-14T16:44:59.137Z,52.46
2022-10-14T16:47:25.852Z,52.61
2022-10-14T16:49:51.838Z,52.46
2022-10-14T16:52:18.192Z,52.68
2022-10-14T16:54:44.511Z,52.71
2022-10-14T16:57:10.830Z,52.63
2022-10-14T16:59:37.181Z,52.88
2022-10-14T17:02:03.497Z,52.72
2022-10-14T17:04:29.905Z,53.09
2022-10-14T17:06:56.221Z,52.64
2022-10-14T17:09:22.569Z,52.79
2022-10-14T17:11:48.888Z,53.01
2022-10-14T17:14:15.239Z,53.02
2022-10-14T17:16:41.579Z,53.10
2022-10-14T17:19:07.945Z,53.10
2022-10-14T17:21:34.271Z,53.47
2022-10-14T17:24:00.611Z,53.30
2022-10-14T17:26:26.933Z,53.68
2022-10-14T17:28:53.381Z,52.68
2022-10-14T17:31:19.600Z,53.42
2022-10-14T17:33:45.922Z,52.88
2022-10-14T17:36:12.278Z,54.30
2022-10-14T17:38:38.626Z,54.52
2022-10-14T17:41:04.945Z,54.36
2022-10-14T17:43:31.320Z,54.59
2022-10-14T17:45:57.673Z,55.57
2022-10-14T17:48:23.998Z,56.21
2022-10-14T17:50:50.301Z,56.35
2022-10-14T17:53:16.624Z,57.22
2022-10-14T17:55:42.971Z,57.94
2022-10-14T17:58:09.361Z,58.30
2022-10-14T18:00:35.675Z,58.79
2022-10-14T18:03:01.997Z,59.01
2022-10-14T18:05:28.352Z,58.94
2022-10-14T18:07:54.677Z,60.15
2022-10-14T18:10:21.031Z,60.24
2022-10-14T18:12:47.375Z,60.70
2022-10-14T18:15:13.713Z,61.92
2022-10-14T18:17:40.034Z,62.34
2022-10-14T18:20:06.377Z,62.52
2022-10-14T18:22:32.713Z,63.21
2022-10-14T18:24:59.031Z,63.47
2022-10-14T18:27:25.650Z,63.22
2022-10-14T18:29:51.725Z,63.22
2022-10-14T18:32:18.068Z,63.40
2022-10-14T18:34:44.387Z,63.61
2022-10-14T18:37:10.707Z,63.45
2022-10-14T18:39:37.116Z,63.71
2022-10-14T18:42:03.429Z,63.75
2022-10-14T18:44:29.755Z,63.69
2022-10-14T18:46:56.072Z,63.74
2022-10-14T18:49:22.450Z,64.00
2022-10-14T18:51:48.789Z,64.13
2022-10-14T18:54:15.132Z,64.06
2022-10-14T18:56:41.508Z,64.18
2022-10-14T18:59:07.845Z,64.45
2022-10-14T19:01:34.215Z,64.44
2022-10-14T19:04:00.545Z,64.24
2022-10-14T19:06:26.866Z,64.35
2022-10-14T19:08:53.277Z,64.43
2022-10-14T19:11:19.624Z,64.69
2022-10-14T19:13:45.960Z,64.74
2022-10-14T19:16:12.301Z,64.99
2022-10-14T19:18:38.623Z,64.90
2022-10-14T19:21:04.963Z,65.13
2022-10-14T19:23:31.303Z,65.27
2022-10-14T19:25:57.660Z,65.41
2022-10-14T19:28:24.010Z,65.48
2022-10-14T19:30:50.314Z,65.51
2022-10-14T19:33:16.671Z,65.58
2022-10-14T19:35:43.017Z,65.49
2022-10-14T19:38:09.372Z,65.49
2022-10-14T19:40:35.734Z,65.37
2022-10-14T19:43:02.069Z,65.38
2022-10-14T19:45:28.406Z,65.00
2022-10-14T19:47:54.766Z,64.72
2022-10-14T19:50:21.109Z,64.45
2022-10-14T19:52:47.420Z,64.59
2022-10-14T19:55:13.771Z,64.49
2022-10-14T19:57:40.114Z,64.42
2022-10-14T20:00:06.456Z,64.28
2022-10-14T20:02:32.864Z,63.99
2022-10-14T20:04:59.149Z,63.96
2022-10-14T20:07:25.697Z,63.74
2022-10-14T20:09:51.828Z,63.81
2022-10-14T20:12:18.145Z,63.70
2022-10-14T20:14:44.524Z,62.95
2022-10-14T20:17:10.893Z,62.25
2022-10-14T20:19:37.224Z,62.17
2022-10-14T20:22:03.535Z,61.94
2022-10-14T20:24:29.872Z,61.63
2022-10-14T20:26:56.257Z,61.95
2022-10-14T20:29:22.600Z,62.19
2022-10-14T20:31:48.913Z,62.40
2022-10-14T20:34:15.270Z,62.83
2022-10-14T20:36:41.615Z,62.94
2022-10-14T20:39:07.994Z,62.92
2022-10-14T20:41:34.335Z,63.00
2022-10-14T20:44:00.675Z,63.18
2022-10-14T20:46:26.994Z,63.10
2022-10-14T20:48:53.318Z,63.03
2022-10-14T20:51:19.660Z,63.17
2022-10-14T20:53:45.991Z,63.02
2022-10-14T20:56:12.304Z,63.12
2022-10-14T20:58:38.659Z,63.07
2022-10-14T21:01:05.096Z,62.68
2022-10-14T21:03:31.342Z,62.73
2022-10-14T21:05:57.667Z,62.77
2022-10-14T21:08:23.995Z,62.62
2022-10-14T21:10:50.344Z,62.47
2022-10-14T21:13:16.661Z,62.54
2022-10-14T21:15:42.984Z,62.30
2022-10-14T21:18:09.307Z,62.06
2022-10-14T21:20:35.645Z,62.24
2022-10-14T21:23:01.983Z,61.95
2022-10-14T21:25:28.322Z,61.58
2022-10-14T21:27:54.670Z,60.81
2022-10-14T21:30:21.052Z,60.73
2022-10-14T21:32:47.390Z,60.85
2022-10-14T21:35:13.730Z,61.07
2022-10-14T21:37:40.086Z,61.34
2022-10-14T21:40:06.431Z,61.76
2022-10-14T21:42:32.774Z,62.02
2022-10-14T21:44:59.107Z,62.13
2022-10-14T21:47:25.423Z,61.80
2022-10-14T21:49:51.765Z,61.40
2022-10-14T21:52:18.111Z,61.17
2022-10-14T21:54:44.437Z,61.38
2022-10-14T21:57:10.762Z,61.08
2022-10-14T21:59:37.125Z,60.79
2022-10-14T22:02:03.467Z,60.87
2022-10-14T22:04:33.202Z,60.93
2022-10-14T22:06:56.107Z,61.42
2022-10-14T22:09:22.437Z,61.60
2022-10-14T22:11:48.827Z,61.72
2022-10-14T22:14:15.163Z,61.58
2022-10-14T22:16:41.484Z,61.41
2022-10-14T22:19:07.827Z,61.41
2022-10-14T22:21:34.176Z,61.38
2022-10-14T22:24:00.554Z,61.37
2022-10-14T22:26:26.871Z,61.62
2022-10-14T22:28:53.266Z,61.61
2022-10-14T22:31:19.529Z,61.72
2022-10-14T22:33:45.913Z,62.31
2022-10-14T22:36:12.246Z,62.77
2022-10-14T22:38:38.597Z,62.88
2022-10-14T22:41:04.937Z,63.03
2022-10-14T22:43:31.264Z,63.17
2022-10-14T22:45:57.582Z,63.58
2022-10-14T22:48:23.908Z,63.70
2022-10-14T22:50:50.254Z,64.09
2022-10-14T22:53:16.575Z,64.38
2022-10-14T22:55:42.948Z,64.39
2022-10-14T22:58:09.291Z,64.60
2022-10-14T23:00:35.686Z,64.45
2022-10-14T23:03:02.020Z,64.11
2022-10-14T23:05:28.314Z,64.27
2022-10-14T23:07:54.629Z,64.37
2022-10-14T23:10:20.979Z,64.78
2022-10-14T23:12:47.351Z,65.00
2022-10-14T23:15:13.689Z,65.04
2022-10-14T23:17:40.038Z,65.37
2022-10-14T23:20:06.370Z,65.68
2022-10-14T23:22:32.737Z,65.71
2022-10-14T23:24:59.070Z,66.05
2022-10-14T23:27:25.415Z,66.31
2022-10-14T23:29:51.759Z,66.57
2022-10-14T23:34:44.441Z,66.40
2022-10-14T23:37:10.820Z,66.26
2022-10-14T23:39:37.132Z,66.43
2022-10-14T23:42:03.469Z,66.58
2022-10-14T23:44:29.824Z,66.78
2022-10-14T23:46:56.153Z,67.03
2022-10-14T23:49:26.013Z,67.69
2022-10-14T23:51:48.841Z,67.71
2022-10-14T23:54:15.161Z,67.62
2022-10-14T23:56:41.509Z,67.76
2022-10-14T23:59:07.835Z,67.53
